createdAt,value
2022-10-11T00:00:53.968Z,60.00
2022-10-11T00:03:20.544Z,60.00
2022-10-11T00:05:47.096Z,60.00
2022-10-11T00:08:13.665Z,60.00
2022-10-11T00:10:40.228Z,60.00
2022-10-11T00:13:06.811Z,60.00
2022-10-11T00:15:33.389Z,60.00
2022-10-11T00:18:04.482Z,60.10
2022-10-11T00:20:32.122Z,60.10
2022-10-11T00:22:58.705Z,60.00
2022-10-11T00:25:25.473Z,60.10
2022-10-11T00:27:52.236Z,60.00
2022-10-11T00:30:18.799Z,60.10
2022-10-11T00:32:45.581Z,60.10
2022-10-11T00:35:12.166Z,60.10
2022-10-11T00:37:38.746Z,60.10
2022-10-11T00:40:05.306Z,60.10
2022-10-11T00:42:31.889Z,60.10
2022-10-11T00:44:58.683Z,60.10
2022-10-11T00:47:25.267Z,60.10
2022-10-11T00:49:51.841Z,60.00
2022-10-11T00:52:18.396Z,60.10
2022-10-11T00:54:44.964Z,60.00
2022-10-11T00:57:11.551Z,60.10
2022-10-11T00:59:38.141Z,60.10
2022-10-11T01:02:04.697Z,60.10
2022-10-11T01:04:31.248Z,60.10
2022-10-11T01:06:57.802Z,60.10
2022-10-11T01:09:24.597Z,60.00
2022-10-11T01:11:51.154Z,60.10
2022-10-11T01:14:17.916Z,60.10
2022-10-11T01:16:44.512Z,60.10
2022-10-11T01:19:11.098Z,60.10
2022-10-11T01:21:37.669Z,60.10
2022-10-11T01:24:08.399Z,60.10
2022-10-11T01:26:35.367Z,60.10
2022-10-11T01:29:01.946Z,60.10
2022-10-11T01:31:28.501Z,60.00
2022-10-11T01:33:55.277Z,60.00
2022-10-11T01:36:21.837Z,60.10
2022-10-11T01:38:48.611Z,60.10
2022-10-11T01:41:15.172Z,60.10
2022-10-11T01:43:41.741Z,60.10
2022-10-11T01:46:08.760Z,60.10
2022-10-11T01:48:35.472Z,60.10
2022-10-11T01:51:02.040Z,60.10
2022-10-11T01:53:28.624Z,60.10
2022-10-11T01:55:55.877Z,60.10
2022-10-11T01:58:22.682Z,60.10
2022-10-11T02:00:49.448Z,60.10
2022-10-11T02:03:16.000Z,60.10
2022-10-11T02:05:42.549Z,60.10
2022-10-11T02:08:09.134Z,60.10
2022-10-11T02:10:35.926Z,60.10
2022-10-11T02:13:02.725Z,60.00
2022-10-11T02:15:29.311Z,60.00
2022-10-11T02:17:56.106Z,60.10
2022-10-11T02:20:22.879Z,60.10
2022-10-11T02:22:49.686Z,60.00
2022-10-11T02:25:16.256Z,60.00
2022-10-11T02:27:42.821Z,60.10
2022-10-11T02:30:09.378Z,60.00
2022-10-11T02:32:35.953Z,60.10
2022-10-11T02:35:02.527Z,60.00
2022-10-11T02:37:29.098Z,60.00
2022-10-11T02:39:55.648Z,60.10
2022-10-11T02:42:22.225Z,60.00
2022-10-11T02:44:48.791Z,60.00
2022-10-11T02:47:15.355Z,60.10
2022-10-11T02:49:41.914Z,60.10
2022-10-11T02:52:08.493Z,60.00
2022-10-11T02:54:35.049Z,60.00
2022-10-11T02:57:01.818Z,60.20
2022-10-11T02:59:28.388Z,60.00
2022-10-11T03:01:55.049Z,60.00
2022-10-11T03:04:21.678Z,61.00
2022-10-11T03:06:48.273Z,60.00
2022-10-11T03:09:14.864Z,60.10
2022-10-11T03:11:41.465Z,60.00
2022-10-11T03:14:08.247Z,60.00
2022-10-11T03:16:34.811Z,60.00
2022-10-11T03:19:01.369Z,60.10
2022-10-11T03:21:28.163Z,60.00
2022-10-11T03:23:54.737Z,60.00
2022-10-11T03:26:21.507Z,60.00
2022-10-11T03:28:48.139Z,61.00
2022-10-11T03:31:14.992Z,60.00
2022-10-11T03:33:41.795Z,60.00
2022-10-11T03:36:08.554Z,60.00
2022-10-11T03:38:35.491Z,60.00
2022-10-11T03:41:02.065Z,60.00
2022-10-11T03:43:28.621Z,60.00
2022-10-11T03:45:55.376Z,60.00
2022-10-11T03:48:21.952Z,60.00
2022-10-11T03:50:48.523Z,60.00
2022-10-11T03:53:15.103Z,60.00
2022-10-11T03:55:41.915Z,60.10
2022-10-11T03:58:08.680Z,60.10
2022-10-11T04:00:35.464Z,61.00
2022-10-11T04:03:02.039Z,60.00
2022-10-11T04:05:28.618Z,60.00
2022-10-11T04:07:55.399Z,60.00
2022-10-11T04:10:22.171Z,60.00
2022-10-11T04:12:48.716Z,60.10
2022-10-11T04:15:15.498Z,60.10
2022-10-11T04:17:42.087Z,60.10
2022-10-11T04:20:08.677Z,60.10
2022-10-11T04:22:35.462Z,60.10
2022-10-11T04:25:02.278Z,60.00
2022-10-11T04:27:28.876Z,60.10
2022-10-11T04:29:55.476Z,60.10
2022-10-11T04:32:22.051Z,60.00
2022-10-11T04:34:48.843Z,60.00
2022-10-11T04:37:15.402Z,60.00
2022-10-11T04:39:41.959Z,60.00
2022-10-11T04:42:08.730Z,60.10
2022-10-11T04:44:35.280Z,61.10
2022-10-11T04:47:01.833Z,60.10
2022-10-11T04:49:28.390Z,60.20
2022-10-11T04:51:54.947Z,60.10
2022-10-11T04:54:21.748Z,60.10
2022-10-11T04:56:48.340Z,60.10
2022-10-11T04:59:14.900Z,60.00
2022-10-11T05:01:41.529Z,60.00
2022-10-11T05:04:08.148Z,60.10
2022-10-11T05:06:34.708Z,60.10
2022-10-11T05:09:01.279Z,60.20
2022-10-11T05:11:27.836Z,60.20
2022-10-11T05:13:54.423Z,60.10
2022-10-11T05:16:20.996Z,60.10
2022-10-11T05:18:47.564Z,60.20
2022-10-11T05:21:14.161Z,60.20
2022-10-11T05:23:40.757Z,60.10
2022-10-11T05:26:07.983Z,60.10
2022-10-11T05:28:34.803Z,60.10
2022-10-11T05:31:01.632Z,60.10
2022-10-11T05:33:28.214Z,60.10
2022-10-11T05:35:55.010Z,60.20
2022-10-11T05:38:21.585Z,60.10
2022-10-11T05:40:48.145Z,60.10
2022-10-11T05:43:14.708Z,60.10
2022-10-11T05:45:41.598Z,60.10
2022-10-11T05:48:08.176Z,60.10
2022-10-11T05:50:34.752Z,60.10
2022-10-11T05:53:01.319Z,60.10
2022-10-11T05:55:27.878Z,60.10
2022-10-11T05:57:54.436Z,60.10
2022-10-11T06:00:21.020Z,60.10
2022-10-11T06:02:47.621Z,60.10
2022-10-11T06:05:14.173Z,60.10
2022-10-11T06:07:40.744Z,60.10
2022-10-11T06:10:07.306Z,60.10
2022-10-11T06:12:33.873Z,60.10
2022-10-11T06:15:00.429Z,60.20
2022-10-11T06:17:26.996Z,60.10
2022-10-11T06:19:53.582Z,60.10
2022-10-11T06:22:20.161Z,60.10
2022-10-11T06:24:46.725Z,60.10
2022-10-11T06:27:13.293Z,60.10
2022-10-11T06:29:39.878Z,60.20
2022-10-11T06:32:06.454Z,60.10
2022-10-11T06:34:33.292Z,60.10
2022-10-11T06:36:59.859Z,60.10
2022-10-11T06:39:26.433Z,60.10
2022-10-11T06:41:52.997Z,60.10
2022-10-11T06:44:19.583Z,60.10
2022-10-11T06:46:46.178Z,60.10
2022-10-11T06:49:12.737Z,60.10
2022-10-11T06:51:39.292Z,60.00
2022-10-11T06:54:05.847Z,60.10
2022-10-11T06:56:32.400Z,60.10
2022-10-11T06:58:58.961Z,60.10
2022-10-11T07:01:25.779Z,60.10
2022-10-11T07:03:52.434Z,60.10
2022-10-11T07:06:19.296Z,60.10
2022-10-11T07:08:45.845Z,60.10
2022-10-11T07:11:12.392Z,60.00
2022-10-11T07:13:39.187Z,60.00
2022-10-11T07:16:06.040Z,60.00
2022-10-11T07:18:33.008Z,60.00
2022-10-11T07:20:59.608Z,60.00
2022-10-11T07:23:26.166Z,60.00
2022-10-11T07:25:52.752Z,61.00
2022-10-11T07:28:19.794Z,60.00
2022-10-11T07:30:46.832Z,60.00
2022-10-11T07:33:13.605Z,60.00
2022-10-11T07:35:40.881Z,60.00
2022-10-11T07:38:10.308Z,60.00
2022-10-11T07:40:36.872Z,60.00
2022-10-11T07:43:03.423Z,60.00
2022-10-11T07:45:29.996Z,60.00
2022-10-11T07:47:56.874Z,59.90
2022-10-11T07:50:23.550Z,59.90
2022-10-11T07:52:50.402Z,59.90
2022-10-11T07:55:16.968Z,59.90
2022-10-11T07:57:43.547Z,60.00
2022-10-11T08:00:10.136Z,59.90
2022-10-11T08:02:36.713Z,59.90
2022-10-11T08:05:03.480Z,59.90
2022-10-11T08:07:30.040Z,59.90
2022-10-11T08:09:56.949Z,59.90
2022-10-11T08:12:23.537Z,59.90
2022-10-11T08:14:50.360Z,60.00
2022-10-11T08:17:16.953Z,59.90
2022-10-11T08:19:43.519Z,60.00
2022-10-11T08:22:10.074Z,59.90
2022-10-11T08:24:38.393Z,60.10
2022-10-11T08:27:05.185Z,59.90
2022-10-11T08:29:31.780Z,60.00
2022-10-11T08:31:58.372Z,60.00
2022-10-11T08:34:24.947Z,60.00
2022-10-11T08:36:51.534Z,59.90
2022-10-11T08:39:18.122Z,59.90
2022-10-11T08:41:44.700Z,59.90
2022-10-11T08:44:12.244Z,59.90
2022-10-11T08:46:38.861Z,59.90
2022-10-11T08:49:05.756Z,59.90
2022-10-11T08:51:32.340Z,60.00
2022-10-11T08:54:01.396Z,59.90
2022-10-11T08:56:31.389Z,59.90
2022-10-11T08:58:57.972Z,59.90
2022-10-11T09:01:24.598Z,59.90
2022-10-11T09:03:51.167Z,59.80
2022-10-11T09:06:17.722Z,59.80
2022-10-11T09:08:44.272Z,59.90
2022-10-11T09:11:11.062Z,59.80
2022-10-11T09:13:37.624Z,59.80
2022-10-11T09:16:04.423Z,59.80
2022-10-11T09:18:31.151Z,59.80
2022-10-11T09:20:57.734Z,59.70
2022-10-11T09:23:24.301Z,59.70
2022-10-11T09:25:50.899Z,59.70
2022-10-11T09:28:17.760Z,59.70
2022-10-11T09:30:44.598Z,59.70
2022-10-11T09:33:11.167Z,59.70
2022-10-11T09:35:37.732Z,59.70
2022-10-11T09:38:04.321Z,59.70
2022-10-11T09:40:30.899Z,59.70
2022-10-11T09:42:57.461Z,59.70
2022-10-11T09:45:24.070Z,59.70
2022-10-11T09:47:50.637Z,59.70
2022-10-11T09:50:17.217Z,59.60
2022-10-11T09:52:43.798Z,59.50
2022-10-11T09:55:10.364Z,59.60
2022-10-11T09:57:36.954Z,59.50
2022-10-11T10:00:03.500Z,59.50
2022-10-11T10:02:30.309Z,59.50
2022-10-11T10:04:57.109Z,59.40
2022-10-11T10:07:23.704Z,59.40
2022-10-11T10:09:50.297Z,59.40
2022-10-11T10:12:16.881Z,59.50
2022-10-11T10:14:43.450Z,59.50
2022-10-11T10:17:10.025Z,59.60
2022-10-11T10:19:39.893Z,59.60
2022-10-11T10:22:08.954Z,59.70
2022-10-11T10:24:35.505Z,59.60
2022-10-11T10:27:02.092Z,59.70
2022-10-11T10:29:28.685Z,59.70
2022-10-11T10:32:13.400Z,59.70
2022-10-11T10:34:41.124Z,59.70
2022-10-11T10:37:07.902Z,59.60
2022-10-11T10:39:34.721Z,59.60
2022-10-11T10:42:01.288Z,59.60
2022-10-11T10:44:27.874Z,59.60
2022-10-11T10:46:54.449Z,59.70
2022-10-11T10:49:52.018Z,59.70
2022-10-11T10:52:07.576Z,59.70
2022-10-11T10:54:34.135Z,59.70
2022-10-11T10:57:00.706Z,59.70
2022-10-11T10:59:27.266Z,59.70
2022-10-11T11:01:53.860Z,59.70
2022-10-11T11:04:20.439Z,59.70
2022-10-11T11:06:47.026Z,59.70
2022-10-11T11:09:13.596Z,59.70
2022-10-11T11:11:40.160Z,59.70
2022-10-11T11:14:06.727Z,59.70
2022-10-11T11:16:33.307Z,59.80
2022-10-11T11:18:59.904Z,59.70
2022-10-11T11:21:26.515Z,59.60
2022-10-11T11:23:53.088Z,59.60
2022-10-11T11:26:19.672Z,59.60
2022-10-11T11:28:46.524Z,59.50
2022-10-11T11:31:13.161Z,59.60
2022-10-11T11:33:39.708Z,59.60
2022-10-11T11:36:06.573Z,59.70
2022-10-11T11:38:33.290Z,59.80
2022-10-11T11:41:00.333Z,59.70
2022-10-11T11:43:26.970Z,59.70
2022-10-11T11:45:53.554Z,59.70
2022-10-11T11:48:20.137Z,59.70
2022-10-11T11:50:46.948Z,59.80
2022-10-11T11:53:13.534Z,59.80
2022-10-11T11:55:40.088Z,59.80
2022-10-11T11:58:07.380Z,59.90
2022-10-11T12:00:34.055Z,59.80
2022-10-11T12:03:00.876Z,59.90
2022-10-11T12:05:27.456Z,59.80
2022-10-11T12:07:54.031Z,59.80
2022-10-11T12:10:20.613Z,59.80
2022-10-11T12:12:47.168Z,59.80
2022-10-11T12:15:13.756Z,59.80
2022-10-11T12:17:40.321Z,59.80
2022-10-11T12:20:07.126Z,59.80
2022-10-11T12:22:33.639Z,59.80
2022-10-11T12:25:00.228Z,59.80
2022-10-11T12:27:26.789Z,59.90
2022-10-11T12:29:53.345Z,59.90
2022-10-11T12:32:19.927Z,60.00
2022-10-11T12:34:46.496Z,60.00
2022-10-11T12:37:13.274Z,60.00
2022-10-11T12:39:39.854Z,60.00
2022-10-11T12:42:06.632Z,59.90
2022-10-11T12:44:33.189Z,60.00
2022-10-11T12:46:59.761Z,59.90
2022-10-11T12:49:26.572Z,59.90
2022-10-11T12:51:53.147Z,59.90
2022-10-11T12:54:27.357Z,59.90
2022-10-11T12:56:56.461Z,59.90
2022-10-11T12:59:23.287Z,60.00
2022-10-11T13:01:49.878Z,60.00
2022-10-11T13:04:16.450Z,59.80
2022-10-11T13:06:43.274Z,59.90
2022-10-11T13:09:09.849Z,59.90
2022-10-11T13:11:36.429Z,59.90
2022-10-11T13:14:03.022Z,59.90
2022-10-11T13:16:29.612Z,59.90
2022-10-11T13:18:56.194Z,59.90
2022-10-11T13:21:23.984Z,60.00
2022-10-11T13:23:50.714Z,60.00
2022-10-11T13:26:17.506Z,60.00
2022-10-11T13:28:44.139Z,60.00
2022-10-11T13:31:10.739Z,60.00
2022-10-11T13:33:37.302Z,60.00
2022-10-11T13:36:04.485Z,60.00
2022-10-11T13:38:31.320Z,60.00
2022-10-11T13:40:57.876Z,60.00
2022-10-11T13:43:24.449Z,60.00
2022-10-11T13:45:51.008Z,60.00
2022-10-11T13:48:17.581Z,60.00
2022-10-11T13:50:44.152Z,60.00
2022-10-11T13:53:10.733Z,60.00
2022-10-11T13:55:37.284Z,60.00
2022-10-11T13:58:04.077Z,60.00
2022-10-11T14:00:30.659Z,60.00
2022-10-11T14:02:57.470Z,60.00
2022-10-11T14:05:24.061Z,60.00
2022-10-11T14:07:50.621Z,60.00
2022-10-11T14:10:17.176Z,60.00
2022-10-11T14:12:43.800Z,60.00
2022-10-11T14:15:10.368Z,60.90
2022-10-11T14:17:37.182Z,60.00
2022-10-11T14:20:08.706Z,59.90
2022-10-11T14:22:37.904Z,60.00
2022-10-11T14:25:04.503Z,60.00
2022-10-11T14:27:31.071Z,60.00
2022-10-11T14:30:23.959Z,60.00
2022-10-11T14:32:44.197Z,60.00
2022-10-11T14:35:10.782Z,60.00
2022-10-11T14:37:37.346Z,60.00
2022-10-11T14:40:04.034Z,60.00
2022-10-11T14:42:30.626Z,60.10
2022-10-11T14:44:57.182Z,60.00
2022-10-11T14:47:23.737Z,60.00
2022-10-11T14:49:50.331Z,60.00
2022-10-11T14:52:17.146Z,60.00
2022-10-11T14:54:43.705Z,60.00
2022-10-11T14:57:10.296Z,60.00
2022-10-11T14:59:37.203Z,60.00
2022-10-11T15:02:03.809Z,60.00
2022-10-11T15:04:30.617Z,60.00
2022-10-11T15:06:57.432Z,60.20
2022-10-11T15:09:24.035Z,60.20
2022-10-11T15:11:50.602Z,60.20
2022-10-11T15:14:17.158Z,60.20
2022-10-11T15:16:44.008Z,60.20
2022-10-11T15:19:10.574Z,60.10
2022-10-11T15:21:37.121Z,60.20
2022-10-11T15:24:03.679Z,60.10
2022-10-11T15:26:30.226Z,60.10
2022-10-11T15:28:56.888Z,60.10
2022-10-11T15:31:23.571Z,60.10
2022-10-11T15:33:50.363Z,60.10
2022-10-11T15:36:16.919Z,60.10
2022-10-11T15:38:43.480Z,60.10
2022-10-11T15:41:10.031Z,60.10
2022-10-11T15:43:36.597Z,60.10
2022-10-11T15:46:03.357Z,60.10
2022-10-11T15:48:30.305Z,60.10
2022-10-11T15:50:57.089Z,60.10
2022-10-11T15:53:23.646Z,60.10
2022-10-11T15:55:50.218Z,60.10
2022-10-11T15:58:16.777Z,61.00
2022-10-11T16:00:43.572Z,60.10
2022-10-11T16:03:10.370Z,60.00
2022-10-11T16:05:36.954Z,60.10
2022-10-11T16:08:03.532Z,60.10
2022-10-11T16:10:30.113Z,60.10
2022-10-11T16:12:56.921Z,60.10
2022-10-11T16:15:23.501Z,60.20
2022-10-11T16:17:50.062Z,60.10
2022-10-11T16:20:16.650Z,60.10
2022-10-11T16:22:43.228Z,60.10
2022-10-11T16:25:10.040Z,60.20
2022-10-11T16:27:36.627Z,60.10
2022-10-11T16:30:03.218Z,60.20
2022-10-11T16:32:29.812Z,60.20
2022-10-11T16:34:56.397Z,60.40
2022-10-11T16:37:22.955Z,60.40
2022-10-11T16:39:49.539Z,60.30
2022-10-11T16:42:16.107Z,60.30
2022-10-11T16:44:42.671Z,60.30
2022-10-11T16:47:09.259Z,60.30
2022-10-11T16:49:35.835Z,60.30
2022-10-11T16:52:02.389Z,60.40
2022-10-11T16:54:29.204Z,60.30
2022-10-11T16:56:55.772Z,60.40
2022-10-11T16:59:22.354Z,60.40
2022-10-11T17:01:48.933Z,60.30
2022-10-11T17:04:15.484Z,60.30
2022-10-11T17:06:42.248Z,60.30
2022-10-11T17:09:08.805Z,60.30
2022-10-11T17:11:35.618Z,60.30
2022-10-11T17:14:02.201Z,60.30
2022-10-11T17:16:28.781Z,60.20
2022-10-11T17:18:55.578Z,60.30
2022-10-11T17:21:22.403Z,60.20
2022-10-11T17:23:49.002Z,60.30
2022-10-11T17:26:15.744Z,60.30
2022-10-11T17:28:42.514Z,60.30
2022-10-11T17:31:10.105Z,60.20
2022-10-11T17:33:37.052Z,60.20
2022-10-11T17:36:03.833Z,60.20
2022-10-11T17:38:30.696Z,60.20
2022-10-11T17:40:57.276Z,60.30
2022-10-11T17:43:23.824Z,60.30
2022-10-11T17:45:50.633Z,60.20
2022-10-11T17:48:17.189Z,60.20
2022-10-11T17:50:48.237Z,60.20
2022-10-11T17:53:16.989Z,60.10
2022-10-11T17:55:43.558Z,60.20
2022-10-11T17:58:10.147Z,60.20
2022-10-11T18:00:36.740Z,60.20
2022-10-11T18:03:03.312Z,60.30
2022-10-11T18:05:29.868Z,60.20
2022-10-11T18:07:56.904Z,60.20
2022-10-11T18:10:23.458Z,60.20
2022-10-11T18:12:50.004Z,60.50
2022-10-11T18:15:16.557Z,60.20
2022-10-11T18:17:43.124Z,60.20
2022-10-11T18:20:09.917Z,60.20
2022-10-11T18:22:36.477Z,60.30
2022-10-11T18:25:03.283Z,60.30
2022-10-11T18:27:29.870Z,60.20
2022-10-11T18:29:56.467Z,60.20
2022-10-11T18:32:23.026Z,60.20
2022-10-11T18:34:49.603Z,60.20
2022-10-11T18:37:16.176Z,60.20
2022-10-11T18:39:42.766Z,60.20
2022-10-11T18:42:09.346Z,60.20
2022-10-11T18:44:35.931Z,60.20
2022-10-11T18:47:02.489Z,60.20
2022-10-11T18:49:29.997Z,60.20
2022-10-11T18:51:56.563Z,60.20
2022-10-11T18:54:23.131Z,60.20
2022-10-11T18:56:49.933Z,60.10
2022-10-11T18:59:16.489Z,60.20
2022-10-11T19:01:43.360Z,60.10
2022-10-11T19:04:10.029Z,60.20
2022-10-11T19:06:36.813Z,61.10
2022-10-11T19:09:03.592Z,60.20
2022-10-11T19:11:30.144Z,60.20
2022-10-11T19:13:56.701Z,60.20
2022-10-11T19:16:23.262Z,60.20
2022-10-11T19:18:50.039Z,60.20
2022-10-11T19:21:16.602Z,60.30
2022-10-11T19:23:43.178Z,60.30
2022-10-11T19:26:09.952Z,60.20
2022-10-11T19:28:36.601Z,60.20
2022-10-11T19:31:03.529Z,60.30
2022-10-11T19:33:30.282Z,60.20
2022-10-11T19:35:57.088Z,60.20
2022-10-11T19:38:23.653Z,60.20
2022-10-11T19:40:51.322Z,60.20
2022-10-11T19:43:17.882Z,60.30
2022-10-11T19:45:44.433Z,60.20
2022-10-11T19:48:11.017Z,60.10
2022-10-11T19:50:37.574Z,60.20
2022-10-11T19:53:04.362Z,60.20
2022-10-11T19:55:30.945Z,60.20
2022-10-11T19:57:57.526Z,60.20
2022-10-11T20:00:24.120Z,60.20
2022-10-11T20:02:50.898Z,60.30
2022-10-11T20:05:17.456Z,60.30
2022-10-11T20:07:44.010Z,60.20
2022-10-11T20:10:10.599Z,60.30
2022-10-11T20:12:38.141Z,60.30
2022-10-11T20:15:05.958Z,60.20
2022-10-11T20:17:32.687Z,60.20
2022-10-11T20:19:59.413Z,61.20
2022-10-11T20:22:25.962Z,60.20
2022-10-11T20:24:52.557Z,60.30
2022-10-11T20:27:19.074Z,60.20
2022-10-11T20:29:45.656Z,60.30
2022-10-11T20:32:12.442Z,60.30
2022-10-11T20:34:38.998Z,60.30
2022-10-11T20:37:05.547Z,60.20
2022-10-11T20:39:32.325Z,61.30
2022-10-11T20:41:59.085Z,60.20
2022-10-11T20:44:25.874Z,60.30
2022-10-11T20:46:52.419Z,60.30
2022-10-11T20:49:19.003Z,60.30
2022-10-11T20:51:45.779Z,60.30
2022-10-11T20:54:12.365Z,60.20
2022-10-11T20:56:38.966Z,60.30
2022-10-11T20:59:05.567Z,60.30
2022-10-11T21:01:32.188Z,60.30
2022-10-11T21:03:59.009Z,60.30
2022-10-11T21:06:25.563Z,60.30
2022-10-11T21:08:52.118Z,60.20
2022-10-11T21:11:18.707Z,60.30
2022-10-11T21:13:45.286Z,61.20
2022-10-11T21:16:12.056Z,60.30
2022-10-11T21:18:38.605Z,60.40
2022-10-11T21:21:05.484Z,60.20
2022-10-11T21:23:32.041Z,60.30
2022-10-11T21:25:58.627Z,60.30
2022-10-11T21:28:25.229Z,60.30
2022-10-11T21:30:51.851Z,60.40
2022-10-11T21:33:18.648Z,60.40
2022-10-11T21:35:45.220Z,60.30
2022-10-11T21:38:12.009Z,60.30
2022-10-11T21:40:38.583Z,60.40
2022-10-11T21:43:05.132Z,60.40
2022-10-11T21:45:31.685Z,60.40
2022-10-11T21:47:58.558Z,60.40
2022-10-11T21:50:25.109Z,60.50
2022-10-11T21:52:51.681Z,60.40
2022-10-11T21:55:18.236Z,60.50
2022-10-11T21:57:44.818Z,60.50
2022-10-11T22:00:11.387Z,60.40
2022-10-11T22:02:37.940Z,60.50
2022-10-11T22:05:04.489Z,60.70
2022-10-11T22:07:31.055Z,60.60
2022-10-11T22:09:57.619Z,60.60
2022-10-11T22:12:24.219Z,60.60
2022-10-11T22:14:50.808Z,60.70
2022-10-11T22:17:17.669Z,60.70
2022-10-11T22:19:44.250Z,60.80
2022-10-11T22:22:10.838Z,60.80
2022-10-11T22:24:37.608Z,60.80
2022-10-11T22:27:04.195Z,60.70
2022-10-11T22:29:34.170Z,60.80
2022-10-11T22:32:01.103Z,60.70
2022-10-11T22:34:27.905Z,60.80
2022-10-11T22:36:54.465Z,60.80
2022-10-11T22:39:21.016Z,60.70
2022-10-11T22:41:47.602Z,60.80
2022-10-11T22:44:14.413Z,60.90
2022-10-11T22:46:40.997Z,60.80
2022-10-11T22:49:07.580Z,60.70
2022-10-11T22:51:34.155Z,60.70
2022-10-11T22:54:00.703Z,60.70
2022-10-11T22:56:27.510Z,60.60
2022-10-11T22:58:54.095Z,60.60
2022-10-11T23:01:20.921Z,60.60
2022-10-11T23:03:47.720Z,60.60
2022-10-11T23:06:14.337Z,60.60
2022-10-11T23:08:40.923Z,60.50
2022-10-11T23:11:07.504Z,60.60
2022-10-11T23:13:34.308Z,60.50
2022-10-11T23:16:00.923Z,60.60
2022-10-11T23:18:27.537Z,60.60
2022-10-11T23:20:54.103Z,60.50
2022-10-11T23:23:20.690Z,60.60
2022-10-11T23:25:47.585Z,60.40
2022-10-11T23:28:14.197Z,60.40
2022-10-11T23:30:40.817Z,60.50
2022-10-11T23:33:07.396Z,60.40
2022-10-11T23:35:34.173Z,60.50
2022-10-11T23:38:00.720Z,60.60
2022-10-11T23:40:27.282Z,60.50
2022-10-11T23:42:53.843Z,60.50
2022-10-11T23:45:20.388Z,60.50
2022-10-11T23:47:47.185Z,60.50
2022-10-11T23:50:13.741Z,61.40
2022-10-11T23:52:40.529Z,60.50
2022-10-11T23:55:07.080Z,60.60
2022-10-11T23:57:33.659Z,60.50
